Time;durP1;ratioP1;P1;durP2;ratioP2;P2;SDS_P1;SDS_P2;PMS_P1;PMS_P2;Temp;Humidity;BMP_temperature;BMP_pressure;BME280_temperature;BME280_humidity;BME280_pressure;Samples;Min_cycle;Max_cycle;Signal;HPM_P1;HPM_P2
2021/10/28 00:14:35;;;;;;;5.47;2.28;;;;;;;;;;5117449;27;20107;-51
2021/10/28 00:17:08;;;;;;;2.75;2.30;;;;;;;;;;5133919;27;20015;-51
2021/10/28 00:19:34;;;;;;;4.28;2.72;;;;;;;;;;5121617;27;20439;-50
2021/10/28 00:22:02;;;;;;;3.33;2.33;;;;;;;;;;5126296;27;20043;-51
2021/10/28 00:24:28;;;;;;;4.82;3.05;;;;;;;;;;5123622;27;20027;-51
2021/10/28 00:26:54;;;;;;;3.28;2.08;;;;;;;;;;5113874;28;20032;-49
2021/10/28 00:29:23;;;;;;;4.28;2.30;;;;;;;;;;5113240;28;20020;-51
2021/10/28 00:31:49;;;;;;;3.35;2.17;;;;;;;;;;5121993;27;20015;-51
2021/10/28 00:34:15;;;;;;;3.33;2.33;;;;;;;;;;5117061;27;20488;-49
2021/10/28 00:36:43;;;;;;;3.10;2.33;;;;;;;;;;5117721;27;20058;-49
2021/10/28 00:39:09;;;;;;;3.63;2.55;;;;;;;;;;5112696;28;20427;-55
2021/10/28 00:41:36;;;;;;;2.85;2.00;;;;;;;;;;5124431;27;20035;-50
2021/10/28 00:44:03;;;;;;;3.03;2.47;;;;;;;;;;5134311;27;20423;-51
2021/10/28 00:46:31;;;;;;;2.50;2.05;;;;;;;;;;5114978;27;20031;-49
2021/10/28 00:48:58;;;;;;;2.97;2.03;;;;;;;;;;5113754;27;20372;-52
2021/10/28 00:51:25;;;;;;;2.85;2.03;;;;;;;;;;5114052;27;20349;-52
2021/10/28 00:53:52;;;;;;;3.30;2.00;;;;;;;;;;5125887;27;20034;-52
2021/10/28 00:56:20;;;;;;;4.13;2.17;;;;;;;;;;5131305;27;20458;-50
2021/10/28 00:58:46;;;;;;;3.30;2.35;;;;;;;;;;5133298;27;20034;-50
2021/10/28 01:01:12;;;;;;;3.53;2.13;;;;;;;;;;5131090;27;20035;-50
2021/10/28 01:03:41;;;;;;;3.92;2.60;;;;;;;;;;5133695;27;20023;-51
2021/10/28 01:06:08;;;;;;;2.90;2.13;;;;;;;;;;5115551;27;20102;-55
2021/10/28 01:08:39;;;;;;;3.13;2.00;;;;;;;;;;5112402;28;20486;-50
2021/10/28 01:11:05;;;;;;;3.65;2.15;;;;;;;;;;5118633;27;20023;-51
2021/10/28 01:13:32;;;;;;;3.83;2.35;;;;;;;;;;5132944;27;20051;-50
2021/10/28 01:15:58;;;;;;;3.75;2.30;;;;;;;;;;5122827;27;20016;-50
2021/10/28 01:18:24;;;;;;;3.63;2.67;;;;;;;;;;5127976;27;20023;-51
2021/10/28 01:20:51;;;;;;;3.45;2.28;;;;;;;;;;5120023;27;20031;-52
2021/10/28 01:23:21;;;;;;;4.20;2.63;;;;;;;;;;5112112;28;20035;-50
2021/10/28 01:26:06;;;;;;;3.72;2.63;;;;;;;;;;5123402;27;20083;-49
2021/10/28 01:28:33;;;;;;;2.97;2.60;;;;;;;;;;5132542;27;20034;-51
2021/10/28 01:31:01;;;;;;;3.05;2.15;;;;;;;;;;5133129;27;20023;-49
2021/10/28 01:33:28;;;;;;;3.33;2.45;;;;;;;;;;5131576;27;20487;-50
2021/10/28 01:35:54;;;;;;;3.15;2.38;;;;;;;;;;5125352;27;20369;-53
2021/10/28 01:38:21;;;;;;;4.88;3.05;;;;;;;;;;5123466;27;20016;-50
2021/10/28 01:40:57;;;;;;;3.50;2.60;;;;;;;;;;5125422;27;20023;-50
2021/10/28 01:43:23;;;;;;;3.35;2.22;;;;;;;;;;5132062;27;20332;-49
2021/10/28 01:45:50;;;;;;;3.40;2.17;;;;;;;;;;5122498;27;20015;-50
2021/10/28 01:48:18;;;;;;;3.13;2.10;;;;;;;;;;5112920;28;20039;-50
2021/10/28 01:50:44;;;;;;;3.70;2.25;;;;;;;;;;5098836;27;20023;-50
2021/10/28 01:53:10;;;;;;;3.30;2.45;;;;;;;;;;5121252;27;20490;-54
2021/10/28 01:55:36;;;;;;;3.30;2.28;;;;;;;;;;5111917;28;20012;-51
2021/10/28 01:58:03;;;;;;;3.47;2.50;;;;;;;;;;5112524;28;20023;-50
2021/10/28 02:00:29;;;;;;;3.38;2.72;;;;;;;;;;5111697;28;20201;-50
2021/10/28 02:02:55;;;;;;;4.85;2.80;;;;;;;;;;5125412;27;20034;-51
2021/10/28 02:05:22;;;;;;;3.58;2.95;;;;;;;;;;5111834;28;20398;-50
2021/10/28 02:07:50;;;;;;;3.95;2.42;;;;;;;;;;5112145;28;20476;-53
2021/10/28 02:10:16;;;;;;;4.00;2.67;;;;;;;;;;5119060;28;20038;-53
2021/10/28 02:12:46;;;;;;;2.88;2.17;;;;;;;;;;5118614;28;20471;-50
2021/10/28 02:15:14;;;;;;;3.25;2.45;;;;;;;;;;5110595;28;20337;-54
2021/10/28 02:17:40;;;;;;;4.20;2.70;;;;;;;;;;5125786;28;20030;-54
2021/10/28 02:20:07;;;;;;;3.15;2.38;;;;;;;;;;5130619;28;20019;-50
2021/10/28 02:22:36;;;;;;;3.63;2.65;;;;;;;;;;5115541;28;20023;-50
2021/10/28 02:25:04;;;;;;;2.85;2.53;;;;;;;;;;5132694;28;20023;-51
2021/10/28 02:27:30;;;;;;;4.35;2.88;;;;;;;;;;5131524;28;20038;-50
2021/10/28 02:29:56;;;;;;;3.80;2.53;;;;;;;;;;5125701;28;20039;-52
2021/10/28 02:32:22;;;;;;;4.03;2.58;;;;;;;;;;5125245;28;20031;-51
2021/10/28 02:34:48;;;;;;;3.78;2.65;;;;;;;;;;5119775;28;20030;-50
2021/10/28 02:37:15;;;;;;;3.28;2.40;;;;;;;;;;5127349;28;20115;-50
2021/10/28 02:39:41;;;;;;;3.95;2.38;;;;;;;;;;5131939;28;20026;-49
2021/10/28 02:42:07;;;;;;;2.50;2.05;;;;;;;;;;5121217;28;20036;-50
2021/10/28 02:44:34;;;;;;;3.85;2.53;;;;;;;;;;5129882;27;20124;-50
2021/10/28 02:47:00;;;;;;;4.35;2.40;;;;;;;;;;5122797;27;20462;-50
2021/10/28 02:49:26;;;;;;;3.55;2.55;;;;;;;;;;5116176;27;20418;-49
2021/10/28 02:51:52;;;;;;;3.88;2.45;;;;;;;;;;5127820;27;20083;-51
2021/10/28 02:54:20;;;;;;;3.00;2.47;;;;;;;;;;5117138;27;20038;-52
2021/10/28 02:56:46;;;;;;;3.00;2.38;;;;;;;;;;5116216;27;20351;-51
2021/10/28 02:59:12;;;;;;;2.67;2.35;;;;;;;;;;5115240;28;20020;-56
2021/10/28 03:01:49;;;;;;;3.28;2.75;;;;;;;;;;5114900;27;20019;-50
2021/10/28 03:04:16;;;;;;;4.88;2.45;;;;;;;;;;5131847;27;20050;-55
2021/10/28 03:06:43;;;;;;;3.55;2.65;;;;;;;;;;5135970;27;20015;-50
2021/10/28 03:09:10;;;;;;;3.45;2.42;;;;;;;;;;5135911;27;20031;-51
2021/10/28 03:11:38;;;;;;;3.67;2.70;;;;;;;;;;5133052;27;20024;-54
2021/10/28 03:14:04;;;;;;;3.90;3.03;;;;;;;;;;5119753;27;20040;-51
2021/10/28 03:27:10;;;;;;;4.25;2.38;;;;;;;;;;5135472;27;20056;-52
2021/10/28 03:29:36;;;;;;;2.83;2.25;;;;;;;;;;5133591;27;20101;-51
2021/10/28 03:32:02;;;;;;;3.45;2.50;;;;;;;;;;5115213;27;20058;-52
2021/10/28 03:34:28;;;;;;;4.40;3.20;;;;;;;;;;5133083;27;20019;-51
2021/10/28 03:37:01;;;;;;;3.83;2.30;;;;;;;;;;5125868;27;20130;-51
2021/10/28 04:30:17;;;;;;;3.25;2.38;;;;;;;;;;5113676;28;20023;-55
2021/10/28 04:32:43;;;;;;;3.60;2.60;;;;;;;;;;5114034;28;20020;-51
2021/10/28 04:35:10;;;;;;;3.83;2.83;;;;;;;;;;5123166;27;20112;-50
2021/10/28 04:37:39;;;;;;;3.55;2.03;;;;;;;;;;5117879;27;20622;-53
2021/10/28 04:40:06;;;;;;;2.92;2.20;;;;;;;;;;5113611;28;20042;-53
2021/10/28 04:42:32;;;;;;;2.92;2.20;;;;;;;;;;5118818;27;20023;-50
2021/10/28 04:44:58;;;;;;;2.50;2.05;;;;;;;;;;5126698;27;20023;-51
2021/10/28 04:47:24;;;;;;;2.25;2.05;;;;;;;;;;5114086;27;20656;-53
2021/10/28 04:49:50;;;;;;;2.60;2.20;;;;;;;;;;5125402;27;20023;-54
2021/10/28 04:52:21;;;;;;;3.33;2.30;;;;;;;;;;5113200;28;20076;-55
2021/10/28 04:54:47;;;;;;;2.65;2.10;;;;;;;;;;5119163;27;20023;-54
2021/10/28 04:57:13;;;;;;;2.70;2.20;;;;;;;;;;5133177;27;20389;-54
2021/10/28 04:59:39;;;;;;;2.78;2.25;;;;;;;;;;5133015;27;20386;-54
2021/10/28 05:02:05;;;;;;;3.55;2.25;;;;;;;;;;5133570;27;20031;-52
2021/10/28 05:04:31;;;;;;;2.42;1.88;;;;;;;;;;5129950;27;20035;-51
2021/10/28 05:06:57;;;;;;;3.08;2.03;;;;;;;;;;5119017;27;20071;-54
2021/10/28 05:09:33;;;;;;;3.90;2.05;;;;;;;;;;5131400;27;20059;-53
2021/10/28 05:11:59;;;;;;;2.70;2.15;;;;;;;;;;5117096;27;20106;-52
2021/10/28 05:14:26;;;;;;;2.03;1.70;;;;;;;;;;5128504;27;20058;-51
2021/10/28 05:16:56;;;;;;;2.70;2.10;;;;;;;;;;5118540;27;20019;-52
2021/10/28 05:19:23;;;;;;;3.22;2.50;;;;;;;;;;5132295;27;20026;-54
2021/10/28 05:21:49;;;;;;;2.80;2.25;;;;;;;;;;5130915;27;20034;-50
2021/10/28 05:24:16;;;;;;;2.20;1.80;;;;;;;;;;5132822;27;20464;-54
2021/10/28 05:26:43;;;;;;;3.72;2.20;;;;;;;;;;5094782;28;20376;-51
2021/10/28 05:29:09;;;;;;;9.60;1.90;;;;;;;;;;5112760;28;20447;-53
2021/10/28 05:31:35;;;;;;;3.95;1.80;;;;;;;;;;5124059;27;20015;-56
2021/10/28 05:34:01;;;;;;;2.97;1.73;;;;;;;;;;5118000;27;20030;-55
2021/10/28 05:36:27;;;;;;;2.95;1.50;;;;;;;;;;5124948;27;20047;-60
2021/10/28 05:38:53;;;;;;;6.30;2.35;;;;;;;;;;5124131;27;20418;-57
2021/10/28 05:41:21;;;;;;;4.72;1.95;;;;;;;;;;5130227;27;20404;-59
2021/10/28 05:43:47;;;;;;;4.43;2.40;;;;;;;;;;5132952;27;20023;-58
2021/10/28 05:46:13;;;;;;;2.70;1.70;;;;;;;;;;5116874;27;20016;-59
2021/10/28 05:48:40;;;;;;;6.05;2.20;;;;;;;;;;5111863;28;20606;-58
2021/10/28 05:51:06;;;;;;;3.28;2.35;;;;;;;;;;5112248;27;20011;-58
2021/10/28 05:53:33;;;;;;;4.63;2.20;;;;;;;;;;5113700;28;20040;-58
2021/10/28 05:55:59;;;;;;;4.78;1.95;;;;;;;;;;5121117;27;20011;-57
2021/10/28 05:58:25;;;;;;;6.55;2.75;;;;;;;;;;5112142;27;20031;-56
2021/10/28 06:00:51;;;;;;;6.05;2.25;;;;;;;;;;5113858;27;20029;-56
2021/10/28 06:03:24;;;;;;;4.47;2.78;;;;;;;;;;5132260;27;20023;-58
2021/10/28 06:05:50;;;;;;;4.85;2.50;;;;;;;;;;5129864;27;20371;-56
2021/10/28 06:08:16;;;;;;;6.40;2.53;;;;;;;;;;5132684;27;20363;-55
2021/10/28 06:10:43;;;;;;;7.68;2.63;;;;;;;;;;5132005;28;20025;-57
2021/10/28 06:13:09;;;;;;;6.88;2.30;;;;;;;;;;5132977;28;20360;-55
2021/10/28 06:15:36;;;;;;;6.35;2.88;;;;;;;;;;5112962;28;20023;-55
2021/10/28 06:18:23;;;;;;;5.30;2.58;;;;;;;;;;5112072;28;20036;-55
2021/10/28 06:20:51;;;;;;;6.03;2.60;;;;;;;;;;5114851;28;20113;-56
2021/10/28 06:23:17;;;;;;;7.07;2.53;;;;;;;;;;5116599;28;20035;-56
2021/10/28 06:25:43;;;;;;;6.47;2.92;;;;;;;;;;5121939;27;20015;-55
2021/10/28 06:28:09;;;;;;;5.95;2.65;;;;;;;;;;5129067;27;20027;-53
2021/10/28 06:30:35;;;;;;;7.05;2.50;;;;;;;;;;5109210;27;20545;-54
2021/10/28 06:33:10;;;;;;;8.32;2.00;;;;;;;;;;5115839;28;20074;-56
2021/10/28 06:35:37;;;;;;;5.40;2.08;;;;;;;;;;5116038;27;20036;-54
2021/10/28 06:38:03;;;;;;;4.53;2.40;;;;;;;;;;5130050;27;20016;-52
2021/10/28 06:40:29;;;;;;;5.28;2.17;;;;;;;;;;5114846;28;20031;-56
2021/10/28 06:42:55;;;;;;;4.53;2.17;;;;;;;;;;5115893;27;20063;-54
2021/10/28 06:45:23;;;;;;;4.15;2.22;;;;;;;;;;5116036;27;20364;-56
2021/10/28 06:47:49;;;;;;;5.25;2.97;;;;;;;;;;5115889;28;20027;-53
2021/10/28 06:50:19;;;;;;;5.20;2.42;;;;;;;;;;5116281;27;20429;-54
2021/10/28 07:03:27;;;;;;;3.80;2.08;;;;;;;;;;5116035;27;20117;-53
2021/10/28 07:05:56;;;;;;;3.47;2.15;;;;;;;;;;5115848;27;20031;-53
2021/10/28 07:08:24;;;;;;;5.80;2.13;;;;;;;;;;5115936;27;20095;-57
2021/10/28 07:10:53;;;;;;;5.93;2.85;;;;;;;;;;5121607;27;20026;-53
2021/10/28 07:13:24;;;;;;;4.03;2.33;;;;;;;;;;5107831;27;20364;-55
2021/10/28 07:16:04;;;;;;;3.72;2.72;;;;;;;;;;5123174;27;20023;-55
2021/10/28 07:18:47;;;;;;;4.82;2.42;;;;;;;;;;5134432;27;20111;-56
2021/10/28 07:26:53;;;;;;;2.72;2.08;;;;;;;;;;5127992;27;20513;-56
2021/10/28 07:34:55;;;;;;;3.28;1.92;;;;;;;;;;5134795;27;20062;-56
2021/10/28 08:16:11;;;;;;;2.70;2.13;;;;;;;;;;5080061;28;20070;-55
2021/10/28 08:19:00;;;;;;;3.13;2.00;;;;;;;;;;5092844;28;20035;-55
2021/10/28 08:21:47;;;;;;;2.45;1.83;;;;;;;;;;5079307;28;20052;-57
2021/10/28 08:29:38;;;;;;;3.25;2.20;;;;;;;;;;5073126;28;20381;-55
2021/10/28 08:32:05;;;;;;;2.40;1.80;;;;;;;;;;5074024;28;20032;-56
2021/10/28 08:34:37;;;;;;;3.20;2.20;;;;;;;;;;5072503;28;20442;-55
2021/10/28 08:37:13;;;;;;;;;;;;;;;;;;5115461;27;20084;-56
2021/10/28 08:39:41;;;;;;;2.67;1.95;;;;;;;;;;5112971;28;19912;-55
2021/10/28 08:42:08;;;;;;;1.75;1.58;;;;;;;;;;5113205;27;20098;-56
2021/10/28 08:44:39;;;;;;;2.88;1.77;;;;;;;;;;5112801;28;20084;-55
2021/10/28 08:47:05;;;;;;;2.75;2.08;;;;;;;;;;5124939;27;20053;-56
2021/10/28 08:49:36;;;;;;;2.00;1.55;;;;;;;;;;5133324;27;20034;-55
2021/10/28 09:26:23;;;;;;;3.05;2.15;;;;;;;;;;5133052;27;20118;-54
2021/10/28 09:28:59;;;;;;;1.98;1.70;;;;;;;;;;5126671;27;20110;-56
2021/10/28 09:31:35;;;;;;;3.80;2.10;;;;;;;;;;5120101;27;20011;-57
2021/10/28 09:34:16;;;;;;;2.38;1.75;;;;;;;;;;5112587;28;20023;-55
2021/10/28 09:45:40;;;;;;;2.60;2.10;;;;;;;;;;5132989;27;20021;-53
2021/10/28 09:51:01;;;;;;;2.80;2.05;;;;;;;;;;5120033;27;20068;-56
2021/10/28 09:53:30;;;;;;;2.47;1.83;;;;;;;;;;5112627;27;20016;-57
2021/10/28 09:58:42;;;;;;;3.00;2.35;;;;;;;;;;5111770;28;20049;-55
2021/10/28 10:01:11;;;;;;;2.63;2.00;;;;;;;;;;5114089;27;20349;-53
2021/10/28 10:03:40;;;;;;;2.30;1.90;;;;;;;;;;5122448;27;20064;-55
2021/10/28 10:06:13;;;;;;;3.00;2.00;;;;;;;;;;5112887;28;20019;-56
2021/10/28 10:08:39;;;;;;;2.97;2.38;;;;;;;;;;5126636;28;20030;-55
2021/10/28 10:11:05;;;;;;;2.75;2.15;;;;;;;;;;5132733;28;20023;-56
2021/10/28 10:13:32;;;;;;;2.65;2.13;;;;;;;;;;5132258;28;20022;-53
2021/10/28 10:16:00;;;;;;;2.78;1.85;;;;;;;;;;5127016;28;20098;-55
2021/10/28 10:18:35;;;;;;;2.78;1.65;;;;;;;;;;5111895;28;20445;-56
2021/10/28 10:21:10;;;;;;;2.90;2.28;;;;;;;;;;5120775;28;20030;-53
2021/10/28 10:24:04;;;;;;;2.55;2.13;;;;;;;;;;5131746;28;20549;-55
2021/10/28 10:26:59;;;;;;;2.45;2.00;;;;;;;;;;5129186;28;20068;-56
2021/10/28 10:30:21;;;;;;;4.00;2.45;;;;;;;;;;5114259;28;20039;-55
2021/10/28 12:45:57;;;;;;;2.45;1.88;;;;;;;;;;5124283;27;20050;-54
2021/10/28 13:38:08;;;;;;;1.65;1.30;;;;;;;;;;5131506;27;20111;-55
2021/10/28 13:51:45;;;;;;;1.85;1.50;;;;;;;;;;5121494;27;20469;-57
2021/10/28 13:56:58;;;;;;;2.22;1.70;;;;;;;;;;5132061;27;20027;-56
2021/10/28 13:59:52;;;;;;;2.58;1.67;;;;;;;;;;5133124;27;20019;-55
2021/10/28 14:19:23;;;;;;;2.15;1.92;;;;;;;;;;5122750;28;20062;-53
2021/10/28 14:27:27;;;;;;;2.75;1.55;;;;;;;;;;5112014;28;20035;-50
2021/10/28 14:38:12;;;;;;;2.03;1.40;;;;;;;;;;5131874;28;20067;-51
2021/10/28 15:30:22;;;;;;;3.72;1.58;;;;;;;;;;5085507;28;20020;-51
2021/10/28 16:23:12;;;;;;;2.50;1.70;;;;;;;;;;5130604;27;20029;-51
2021/10/28 16:25:40;;;;;;;3.03;2.00;;;;;;;;;;5127906;27;20019;-53
2021/10/28 16:28:06;;;;;;;2.72;2.00;;;;;;;;;;5113644;28;20096;-50
2021/10/28 16:30:32;;;;;;;2.97;1.70;;;;;;;;;;5114121;28;20016;-52
2021/10/28 16:32:58;;;;;;;3.08;2.15;;;;;;;;;;5112703;28;20114;-51
2021/10/28 16:35:25;;;;;;;4.00;2.28;;;;;;;;;;5118044;27;20159;-51
2021/10/28 16:37:51;;;;;;;2.65;1.50;;;;;;;;;;5133427;27;20448;-50
2021/10/28 16:40:18;;;;;;;2.28;1.50;;;;;;;;;;5125788;27;20020;-51
2021/10/28 16:42:44;;;;;;;2.38;1.90;;;;;;;;;;5120359;27;20030;-52
2021/10/28 16:45:10;;;;;;;3.00;1.60;;;;;;;;;;5127745;27;20377;-54
2021/10/28 16:47:37;;;;;;;1.88;1.63;;;;;;;;;;5113666;28;20054;-52
2021/10/28 16:50:04;;;;;;;2.80;1.98;;;;;;;;;;5117637;27;20094;-50
2021/10/28 16:52:30;;;;;;;2.85;2.20;;;;;;;;;;5124824;27;20030;-51
2021/10/28 16:54:56;;;;;;;2.50;1.98;;;;;;;;;;5117070;27;20072;-56
2021/10/28 16:57:22;;;;;;;4.50;1.90;;;;;;;;;;5134019;27;20050;-53
2021/10/28 16:59:48;;;;;;;2.58;1.85;;;;;;;;;;5132837;27;20095;-50
2021/10/28 17:02:15;;;;;;;3.25;2.17;;;;;;;;;;5134025;27;20035;-52
2021/10/28 17:04:46;;;;;;;6.30;2.75;;;;;;;;;;5121850;27;20470;-55
2021/10/28 17:07:13;;;;;;;5.07;2.33;;;;;;;;;;5133971;27;20035;-56
2021/10/28 17:09:39;;;;;;;7.63;2.47;;;;;;;;;;5131005;27;20035;-56
2021/10/28 17:12:05;;;;;;;5.60;1.98;;;;;;;;;;5131076;27;20027;-54
2021/10/28 17:14:31;;;;;;;6.00;2.13;;;;;;;;;;5113263;28;20016;-51
2021/10/28 17:16:57;;;;;;;3.03;1.67;;;;;;;;;;5112610;28;20020;-53
2021/10/28 17:19:23;;;;;;;4.25;2.20;;;;;;;;;;5116185;27;20031;-54
2021/10/28 17:21:50;;;;;;;4.78;1.90;;;;;;;;;;5120211;27;20368;-51
2021/10/28 17:24:27;;;;;;;4.03;2.03;;;;;;;;;;5123131;27;20051;-50
2021/10/28 17:26:53;;;;;;;3.00;2.00;;;;;;;;;;5113323;27;20020;-49
2021/10/28 17:29:19;;;;;;;3.90;1.85;;;;;;;;;;5113260;28;20113;-49
2021/10/28 17:31:46;;;;;;;4.40;1.65;;;;;;;;;;5114493;27;20012;-49
2021/10/28 17:34:12;;;;;;;7.05;2.00;;;;;;;;;;5120217;27;20015;-49
2021/10/28 17:36:38;;;;;;;6.90;2.10;;;;;;;;;;5116397;27;20119;-59
2021/10/28 17:39:06;;;;;;;3.38;1.73;;;;;;;;;;5125655;27;20043;-50
2021/10/28 17:41:32;;;;;;;4.30;2.38;;;;;;;;;;5114849;27;20054;-53
2021/10/28 17:43:58;;;;;;;5.32;2.58;;;;;;;;;;5111791;28;20020;-53
2021/10/28 17:46:26;;;;;;;4.47;2.15;;;;;;;;;;5112911;28;20042;-51
2021/10/28 17:48:52;;;;;;;9.25;2.85;;;;;;;;;;5111640;28;20024;-48
2021/10/28 17:51:19;;;;;;;7.93;3.10;;;;;;;;;;5118101;27;20084;-49
2021/10/28 17:53:47;;;;;;;6.75;2.85;;;;;;;;;;5131724;27;20080;-54
2021/10/28 17:56:14;;;;;;;7.38;3.47;;;;;;;;;;5131319;27;20018;-51
2021/10/28 17:58:40;;;;;;;6.43;3.83;;;;;;;;;;5133172;27;20053;-55
2021/10/28 18:01:07;;;;;;;7.75;4.10;;;;;;;;;;5132157;27;20030;-54
2021/10/28 18:03:33;;;;;;;6.30;3.72;;;;;;;;;;5128297;27;20022;-50
2021/10/28 18:06:00;;;;;;;10.68;5.00;;;;;;;;;;5112105;27;20035;-48
2021/10/28 18:08:26;;;;;;;8.55;4.95;;;;;;;;;;5112294;28;20027;-50
2021/10/28 18:10:52;;;;;;;10.65;4.72;;;;;;;;;;5123377;27;20041;-50
2021/10/28 18:13:18;;;;;;;10.50;4.07;;;;;;;;;;5130614;28;20031;-52
2021/10/28 18:15:47;;;;;;;10.02;4.28;;;;;;;;;;5131025;27;20046;-50
2021/10/28 18:18:13;;;;;;;8.13;3.45;;;;;;;;;;5132069;28;20027;-43
2021/10/28 18:20:40;;;;;;;8.40;3.90;;;;;;;;;;5118775;28;20015;-60
2021/10/28 18:23:06;;;;;;;10.48;4.10;;;;;;;;;;5131298;28;20019;-46
2021/10/28 18:25:33;;;;;;;9.02;3.80;;;;;;;;;;5132263;28;20509;-49
2021/10/28 18:28:00;;;;;;;12.48;3.50;;;;;;;;;;5128701;28;20468;-46
2021/10/28 18:30:28;;;;;;;8.20;3.25;;;;;;;;;;5122745;28;20102;-50
2021/10/28 18:32:56;;;;;;;7.32;3.70;;;;;;;;;;5113858;28;20108;-52
2021/10/28 18:35:22;;;;;;;18.60;4.47;;;;;;;;;;5117594;28;20153;-47
2021/10/28 18:37:49;;;;;;;7.95;4.25;;;;;;;;;;5111343;28;20023;-47
2021/10/28 18:40:16;;;;;;;5.22;3.00;;;;;;;;;;5123554;28;20027;-46
2021/10/28 18:42:43;;;;;;;6.18;2.88;;;;;;;;;;5132470;28;20055;-48
2021/10/28 18:45:10;;;;;;;7.22;3.08;;;;;;;;;;5131792;28;20020;-46
2021/10/28 18:47:36;;;;;;;4.82;3.20;;;;;;;;;;5132141;28;20016;-56
2021/10/28 18:50:04;;;;;;;5.60;2.70;;;;;;;;;;5125984;28;20517;-49
2021/10/28 18:52:30;;;;;;;7.80;3.40;;;;;;;;;;5115202;28;20452;-57
2021/10/28 18:54:56;;;;;;;7.80;2.97;;;;;;;;;;5131513;28;20021;-56
2021/10/28 18:57:22;;;;;;;6.18;2.95;;;;;;;;;;5132082;28;20447;-57
2021/10/28 18:59:48;;;;;;;6.18;3.20;;;;;;;;;;5093146;28;20089;-57
2021/10/28 19:02:15;;;;;;;8.73;4.47;;;;;;;;;;5122477;28;20082;-50
2021/10/28 19:04:41;;;;;;;11.82;4.47;;;;;;;;;;5132249;28;20049;-57
2021/10/28 19:07:08;;;;;;;10.07;4.55;;;;;;;;;;5128985;28;20102;-51
2021/10/28 19:09:34;;;;;;;10.40;5.78;;;;;;;;;;5111837;28;20029;-54
2021/10/28 19:12:00;;;;;;;13.75;5.57;;;;;;;;;;5111085;28;20027;-53
2021/10/28 19:14:27;;;;;;;10.52;5.88;;;;;;;;;;5111923;28;20012;-58
2021/10/28 19:16:54;;;;;;;10.95;5.68;;;;;;;;;;5110859;28;20440;-56
2021/10/28 19:19:20;;;;;;;10.52;4.72;;;;;;;;;;5111854;28;20345;-49
2021/10/28 19:21:46;;;;;;;10.40;5.03;;;;;;;;;;5111463;28;20019;-52
2021/10/28 19:24:12;;;;;;;6.55;4.22;;;;;;;;;;5128171;28;20015;-50
2021/10/28 19:26:39;;;;;;;8.60;4.45;;;;;;;;;;5132142;27;20015;-53
2021/10/28 19:29:07;;;;;;;8.30;4.45;;;;;;;;;;5132398;27;20032;-54
2021/10/28 19:32:16;;;;;;;10.45;4.05;;;;;;;;;;5130565;27;20019;-55
2021/10/28 19:34:34;;;;;;;10.48;4.53;;;;;;;;;;5110750;27;20019;-58
2021/10/28 19:37:27;;;;;;;7.95;3.80;;;;;;;;;;5130174;27;20043;-58
2021/10/28 19:47:57;;;;;;;10.32;3.75;;;;;;;;;;5113808;28;20028;-58
2021/10/28 19:50:23;;;;;;;7.03;3.80;;;;;;;;;;5106595;27;20098;-59
2021/10/28 19:52:50;;;;;;;6.53;3.42;;;;;;;;;;5117133;27;20051;-58
2021/10/28 19:55:18;;;;;;;5.95;3.88;;;;;;;;;;5115776;27;20031;-59
2021/10/28 19:57:50;;;;;;;7.60;3.58;;;;;;;;;;5096784;28;20395;-59
2021/10/28 20:21:23;;;;;;;7.10;3.80;;;;;;;;;;5120300;27;20656;-58
2021/10/28 20:23:51;;;;;;;6.45;3.65;;;;;;;;;;5118687;27;20463;-58
2021/10/28 20:26:17;;;;;;;4.75;2.75;;;;;;;;;;5118552;27;20024;-59
2021/10/28 20:28:47;;;;;;;6.55;3.45;;;;;;;;;;5113028;27;20019;-58
2021/10/28 20:31:14;;;;;;;4.68;3.10;;;;;;;;;;5122256;27;20081;-59
2021/10/28 20:33:48;;;;;;;5.72;3.58;;;;;;;;;;5113862;28;20326;-58
2021/10/28 20:39:05;;;;;;;4.72;2.90;;;;;;;;;;5112162;28;20376;-59
2021/10/28 20:41:31;;;;;;;7.13;3.80;;;;;;;;;;5113654;27;20023;-59
2021/10/28 20:43:58;;;;;;;7.72;4.28;;;;;;;;;;5112699;28;20127;-58
2021/10/28 20:46:28;;;;;;;4.78;3.38;;;;;;;;;;5113561;27;20180;-58
2021/10/28 20:48:55;;;;;;;9.75;3.83;;;;;;;;;;5129428;27;20087;-59
2021/10/28 20:51:22;;;;;;;7.45;3.65;;;;;;;;;;5113359;27;20046;-58
2021/10/28 20:53:49;;;;;;;6.80;4.70;;;;;;;;;;5131537;27;20051;-59
2021/10/28 20:56:15;;;;;;;9.07;4.15;;;;;;;;;;5117223;27;20066;-59
2021/10/28 20:58:41;;;;;;;6.82;3.10;;;;;;;;;;5116587;27;20421;-59
2021/10/28 21:01:07;;;;;;;7.38;3.28;;;;;;;;;;5132767;27;20023;-59
2021/10/28 21:03:33;;;;;;;5.47;3.30;;;;;;;;;;5133742;27;20405;-59
2021/10/28 21:06:01;;;;;;;4.55;3.00;;;;;;;;;;5131512;27;20099;-59
2021/10/28 21:08:28;;;;;;;4.85;3.17;;;;;;;;;;5133828;27;20123;-59
2021/10/28 21:10:55;;;;;;;6.07;3.22;;;;;;;;;;5119377;27;20039;-57
2021/10/28 21:13:22;;;;;;;5.57;3.53;;;;;;;;;;5111050;27;20448;-59
2021/10/28 21:15:48;;;;;;;5.97;3.65;;;;;;;;;;5117441;27;20015;-59
2021/10/28 21:18:14;;;;;;;6.43;2.88;;;;;;;;;;5097330;28;20228;-59
2021/10/28 21:20:40;;;;;;;6.65;3.33;;;;;;;;;;5116557;27;20024;-59
2021/10/28 21:23:06;;;;;;;8.68;3.90;;;;;;;;;;5114948;27;20527;-59
2021/10/28 21:25:32;;;;;;;4.72;3.03;;;;;;;;;;5118291;27;20024;-59
2021/10/28 21:27:58;;;;;;;4.00;2.88;;;;;;;;;;5114676;27;20035;-59
2021/10/28 21:30:24;;;;;;;5.35;3.42;;;;;;;;;;5115256;27;20050;-59
2021/10/28 21:32:50;;;;;;;6.28;3.78;;;;;;;;;;5115365;27;20065;-59
2021/10/28 21:35:17;;;;;;;7.95;3.38;;;;;;;;;;5115757;27;20039;-59
2021/10/28 21:37:43;;;;;;;7.85;3.67;;;;;;;;;;5120945;27;20034;-59
2021/10/28 21:40:11;;;;;;;6.03;2.65;;;;;;;;;;5117877;27;20054;-59
2021/10/28 21:42:37;;;;;;;6.00;3.30;;;;;;;;;;5100284;27;20016;-59
2021/10/28 21:45:11;;;;;;;4.20;2.97;;;;;;;;;;5117414;27;20476;-59
2021/10/28 21:47:37;;;;;;;6.05;3.40;;;;;;;;;;5114351;27;20020;-59
2021/10/28 21:50:08;;;;;;;4.60;3.15;;;;;;;;;;5115237;27;20046;-59
2021/10/28 21:52:37;;;;;;;6.68;3.50;;;;;;;;;;5119591;27;20027;-59
2021/10/28 22:00:41;;;;;;;7.32;3.50;;;;;;;;;;5090299;28;20059;-59
2021/10/28 22:24:54;;;;;;;4.78;3.15;;;;;;;;;;5116457;28;20503;-59
2021/10/28 22:27:24;;;;;;;5.00;3.47;;;;;;;;;;5116424;28;20091;-59
2021/10/28 22:29:50;;;;;;;5.25;2.97;;;;;;;;;;5114122;28;20034;-59
2021/10/28 22:32:17;;;;;;;6.18;3.47;;;;;;;;;;5118280;28;20049;-59
2021/10/28 22:34:44;;;;;;;6.60;2.60;;;;;;;;;;5119583;28;20040;-59
2021/10/28 22:37:26;;;;;;;7.90;4.32;;;;;;;;;;5115504;28;20403;-59
2021/10/28 22:40:06;;;;;;;6.65;3.15;;;;;;;;;;5118467;28;20036;-59
2021/10/28 22:42:33;;;;;;;5.60;3.58;;;;;;;;;;5117822;28;20149;-59
2021/10/28 22:44:59;;;;;;;4.30;2.95;;;;;;;;;;5120296;28;20016;-59
2021/10/28 22:47:26;;;;;;;6.00;4.07;;;;;;;;;;5119455;28;20106;-59
2021/10/28 22:49:56;;;;;;;4.38;3.60;;;;;;;;;;5117492;28;20398;-59
2021/10/28 22:52:28;;;;;;;3.63;2.90;;;;;;;;;;5114250;28;20019;-59
2021/10/28 22:55:00;;;;;;;;;;;;;;;;;;5116748;28;20044;-59
2021/10/28 22:57:34;;;;;;;5.32;3.10;;;;;;;;;;5114614;28;19907;-59
2021/10/28 23:00:03;;;;;;;5.05;3.30;;;;;;;;;;5114565;28;20031;-59
2021/10/28 23:15:18;;;;;;;4.28;2.85;;;;;;;;;;5118918;27;20164;-59
2021/10/28 23:20:48;;;;;;;4.65;2.92;;;;;;;;;;5121490;27;20461;-59
2021/10/28 23:23:15;;;;;;;5.40;3.38;;;;;;;;;;5117573;27;20149;-59
2021/10/28 23:25:41;;;;;;;4.80;3.10;;;;;;;;;;5115315;28;20413;-59
2021/10/28 23:28:07;;;;;;;4.72;2.63;;;;;;;;;;5114633;28;20015;-59
2021/10/28 23:30:34;;;;;;;4.07;3.17;;;;;;;;;;5115024;28;20452;-59
2021/10/28 23:33:00;;;;;;;5.10;3.30;;;;;;;;;;5114437;28;20036;-59
2021/10/28 23:35:27;;;;;;;4.55;3.33;;;;;;;;;;5117240;27;20368;-59
2021/10/28 23:37:53;;;;;;;5.38;2.95;;;;;;;;;;5135475;27;20076;-59
2021/10/28 23:40:19;;;;;;;6.25;3.05;;;;;;;;;;5119725;27;20837;-59
2021/10/28 23:42:45;;;;;;;5.03;3.13;;;;;;;;;;5115156;28;20031;-59
2021/10/28 23:45:11;;;;;;;3.60;2.92;;;;;;;;;;5114409;27;20389;-59
2021/10/28 23:47:37;;;;;;;3.60;2.85;;;;;;;;;;5121339;27;20343;-59
2021/10/28 23:50:04;;;;;;;4.60;2.75;;;;;;;;;;5104950;27;20475;-58
2021/10/28 23:52:30;;;;;;;5.50;3.10;;;;;;;;;;5119265;27;20059;-59
2021/10/28 23:54:56;;;;;;;4.82;3.47;;;;;;;;;;5134909;27;20055;-59
2021/10/28 23:57:23;;;;;;;6.32;4.05;;;;;;;;;;5121835;27;20028;-59
2021/10/28 23:59:49;;;;;;;4.07;2.58;;;;;;;;;;5114860;28;20403;-59
